Renwick, Iowa
Current Conditions -  °F | °C
As of 8:35 AM on Monday 26 Jan 2015 (Local Time) from KCAV Reporting Station
Broken Clouds Broken Clouds  
Wind Chill: 24°   Ceiling: 12000
Heat Index: 34°   Visibility: 10mi
Dew Point: 34°   Wind: 15mph
Humidity: 100%   Direction: 260°W
Pressure: 29.78"   Gusts: NA
Location:  42.83°N, 93.98°W
Report Text: KCAV 261435Z AUTO 26013KT 10SM BKN120 01/01 A2978 RMK AO2
Loading
Personal Weather Stations






























Interactive Weather Map New forecast layout! Learn more

10-Day Weather Forecast

Advertisements
Track Severe Weather on mobile